createdAt,value
2018-09-04T00:00:16.187Z,7.40
2018-09-04T00:01:16.249Z,6.90
2018-09-04T00:02:16.312Z,6.80
2018-09-04T00:03:16.374Z,6.80
2018-09-04T00:04:16.443Z,6.60
2018-09-04T00:05:16.499Z,6.90
2018-09-04T00:07:17.030Z,6.50
2018-09-04T00:08:16.688Z,7.00
2018-09-04T00:09:16.748Z,7.10
2018-09-04T00:10:16.814Z,6.80
2018-09-04T00:11:16.876Z,6.50
2018-09-04T00:12:16.936Z,7.00
2018-09-04T00:13:16.999Z,6.70
2018-09-04T00:14:17.062Z,6.70
2018-09-04T00:15:17.127Z,6.90
2018-09-04T00:16:17.186Z,7.40
2018-09-04T00:17:17.248Z,6.80
2018-09-04T00:18:17.311Z,7.00
2018-09-04T00:19:17.373Z,7.00
2018-09-04T00:20:17.437Z,6.60
2018-09-04T00:21:17.503Z,6.70
2018-09-04T00:22:17.561Z,7.30
2018-09-04T00:23:17.623Z,6.90
2018-09-04T00:24:17.691Z,7.00
2018-09-04T00:25:17.749Z,6.90
2018-09-04T00:27:17.873Z,7.00
2018-09-04T00:28:17.935Z,7.00
2018-09-04T00:29:18.000Z,7.20
2018-09-04T00:30:18.060Z,7.20
2018-09-04T00:31:18.123Z,6.70
2018-09-04T00:32:18.186Z,6.50
2018-09-04T00:33:18.247Z,7.60
2018-09-04T00:34:18.314Z,7.20
2018-09-04T00:35:18.372Z,7.30
2018-09-04T00:36:18.435Z,7.40
2018-09-04T00:37:18.497Z,7.00
2018-09-04T00:38:18.560Z,6.80
2018-09-04T00:39:18.623Z,7.00
2018-09-04T00:40:18.685Z,6.80
2018-09-04T00:41:18.748Z,6.70
2018-09-04T00:42:18.812Z,7.30
2018-09-04T00:43:18.872Z,7.30
2018-09-04T00:44:18.937Z,7.10
2018-09-04T00:45:18.999Z,7.40
2018-09-04T00:46:19.060Z,6.90
2018-09-04T00:47:19.123Z,7.40
2018-09-04T00:48:19.185Z,7.20
2018-09-04T00:49:19.249Z,7.10
2018-09-04T00:50:19.311Z,7.30
2018-09-04T00:51:19.373Z,6.90
2018-09-04T00:52:19.436Z,6.40
2018-09-04T00:53:19.501Z,6.80
2018-09-04T00:54:19.562Z,6.60
2018-09-04T00:55:19.624Z,7.30
2018-09-04T00:56:19.687Z,7.10
2018-09-04T00:57:19.749Z,7.30
2018-09-04T00:58:19.814Z,6.90
2018-09-04T00:59:19.875Z,6.90
2018-09-04T01:00:19.936Z,7.10
2018-09-04T01:01:20.000Z,6.70
2018-09-04T01:02:20.064Z,7.10
2018-09-04T01:03:20.126Z,7.20
2018-09-04T01:04:20.189Z,6.80
2018-09-04T01:05:20.252Z,7.20
2018-09-04T01:06:20.313Z,7.10
2018-09-04T01:07:20.578Z,7.70
2018-09-04T01:08:20.440Z,7.30
2018-09-04T01:09:20.502Z,7.00
2018-09-04T01:10:20.564Z,7.20
2018-09-04T01:11:20.628Z,7.60
2018-09-04T01:12:20.690Z,7.80
2018-09-04T01:13:20.752Z,7.30
2018-09-04T01:14:20.819Z,8.00
2018-09-04T01:15:20.878Z,8.00
2018-09-04T01:16:20.941Z,7.50
2018-09-04T01:17:21.205Z,7.70
2018-09-04T01:18:21.066Z,7.60
2018-09-04T01:19:21.134Z,7.80
2018-09-04T01:20:21.191Z,8.00
2018-09-04T01:21:21.252Z,8.00
2018-09-04T01:22:21.315Z,8.00
2018-09-04T01:23:21.380Z,8.10
2018-09-04T01:24:21.440Z,7.90
2018-09-04T01:25:21.505Z,7.90
2018-09-04T01:27:21.627Z,7.20
2018-09-04T01:28:21.690Z,8.60
2018-09-04T01:29:21.755Z,8.20
2018-09-04T01:30:21.815Z,7.90
2018-09-04T01:31:21.877Z,8.40
2018-09-04T01:32:21.939Z,8.30
2018-09-04T01:33:22.002Z,8.30
2018-09-04T01:34:22.068Z,8.80
2018-09-04T01:35:22.126Z,8.80
2018-09-04T01:36:22.189Z,8.90
2018-09-04T01:37:22.252Z,8.10
2018-09-04T01:38:22.312Z,7.80
2018-09-04T01:40:23.855Z,8.00
2018-09-04T01:41:22.499Z,7.80
2018-09-04T01:42:22.562Z,8.40
2018-09-04T01:43:22.623Z,8.60
2018-09-04T01:44:22.686Z,8.50
2018-09-04T01:45:22.748Z,8.90
2018-09-04T01:46:22.810Z,9.00
2018-09-04T01:47:22.872Z,8.90
2018-09-04T01:48:22.934Z,9.60
2018-09-04T01:49:22.996Z,9.10
2018-09-04T01:50:23.058Z,8.40
2018-09-04T01:51:23.122Z,8.30
2018-09-04T01:52:23.185Z,8.60
2018-09-04T01:53:23.245Z,9.20
2018-09-04T01:54:23.307Z,8.90
2018-09-04T01:55:23.369Z,9.30
2018-09-04T01:56:23.431Z,9.20
2018-09-04T01:57:23.492Z,8.90
2018-09-04T01:58:23.554Z,9.60
2018-09-04T01:59:23.616Z,8.90
2018-09-04T02:00:23.678Z,9.80
2018-09-04T02:01:23.740Z,9.90
2018-09-04T02:02:23.803Z,9.20
2018-09-04T02:03:23.865Z,9.10
2018-09-04T02:04:23.926Z,8.80
2018-09-04T02:05:23.988Z,10.00
2018-09-04T02:06:24.050Z,9.50
2018-09-04T02:07:24.116Z,9.30
2018-09-04T02:08:24.174Z,9.60
2018-09-04T02:09:24.236Z,8.90
2018-09-04T02:10:24.299Z,8.70
2018-09-04T02:11:24.360Z,8.70
2018-09-04T02:12:24.422Z,8.60
2018-09-04T02:13:24.483Z,8.90
2018-09-04T02:14:24.544Z,9.00
2018-09-04T02:15:24.609Z,8.90
2018-09-04T02:16:24.672Z,9.30
2018-09-04T02:17:24.731Z,9.10
2018-09-04T02:18:24.798Z,9.00
2018-09-04T02:19:24.858Z,8.30
2018-09-04T02:20:24.936Z,8.40
2018-09-04T02:21:24.981Z,8.50
2018-09-04T02:22:25.046Z,8.70
2018-09-04T02:23:25.105Z,9.90
2018-09-04T02:24:25.167Z,9.60
2018-09-04T02:25:25.227Z,9.50
2018-09-04T02:26:25.289Z,9.80
2018-09-04T02:27:25.352Z,9.30
2018-09-04T02:28:25.414Z,9.70
2018-09-04T02:29:25.476Z,9.80
2018-09-04T02:30:25.539Z,9.60
2018-09-04T02:31:25.603Z,9.40
2018-09-04T02:32:25.661Z,10.00
2018-09-04T02:33:25.722Z,9.60
2018-09-04T02:34:25.785Z,9.70
2018-09-04T02:35:25.847Z,8.80
2018-09-04T02:36:25.909Z,10.00
2018-09-04T02:37:25.970Z,9.80
2018-09-04T02:38:26.052Z,9.40
2018-09-04T02:39:26.102Z,9.30
2018-09-04T02:40:26.156Z,10.20
2018-09-04T02:41:26.218Z,9.40
2018-09-04T02:42:26.280Z,9.60
2018-09-04T02:43:26.342Z,9.80
2018-09-04T02:44:26.404Z,9.50
2018-09-04T02:45:26.465Z,10.40
2018-09-04T02:46:26.528Z,9.90
2018-09-04T02:47:26.589Z,9.30
2018-09-04T02:48:26.652Z,8.70
2018-09-04T02:49:26.713Z,9.80
2018-09-04T02:50:26.780Z,9.40
2018-09-04T02:51:26.838Z,9.00
2018-09-04T02:52:26.901Z,9.60
2018-09-04T02:53:26.962Z,10.20
2018-09-04T02:54:27.025Z,10.50
2018-09-04T02:55:27.085Z,9.60
2018-09-04T02:56:27.146Z,9.50
2018-09-04T02:57:27.209Z,9.80
2018-09-04T02:58:27.270Z,9.30
2018-09-04T02:59:27.333Z,10.20
2018-09-04T03:00:27.395Z,10.10
2018-09-04T03:01:27.456Z,10.10
2018-09-04T03:02:27.518Z,9.80
2018-09-04T03:03:27.580Z,9.90
2018-09-04T03:04:27.647Z,10.30
2018-09-04T03:05:27.704Z,9.80
2018-09-04T03:06:27.765Z,10.40
2018-09-04T03:07:27.827Z,9.20
2018-09-04T03:08:27.890Z,9.20
2018-09-04T03:09:27.952Z,9.70
2018-09-04T03:10:28.013Z,10.40
2018-09-04T03:11:28.074Z,9.70
2018-09-04T03:12:28.138Z,9.80
2018-09-04T03:13:28.253Z,9.40
2018-09-04T03:14:28.261Z,9.50
2018-09-04T03:15:28.325Z,9.30
2018-09-04T03:16:28.386Z,9.40
2018-09-04T03:17:28.447Z,8.60
2018-09-04T03:18:28.508Z,9.60
2018-09-04T03:19:28.628Z,9.40
2018-09-04T03:20:28.637Z,9.60
2018-09-04T03:21:28.697Z,9.70
2018-09-04T03:22:28.764Z,9.30
2018-09-04T03:23:28.820Z,9.80
2018-09-04T03:24:28.882Z,9.70
2018-09-04T03:25:28.943Z,9.90
2018-09-04T03:26:29.005Z,9.70
2018-09-04T03:27:29.067Z,9.30
2018-09-04T03:28:29.130Z,9.00
2018-09-04T03:29:29.192Z,10.20
2018-09-04T03:30:29.255Z,9.10
2018-09-04T03:31:29.316Z,9.60
2018-09-04T03:32:29.379Z,9.60
2018-09-04T03:33:29.442Z,10.60
2018-09-04T03:34:29.502Z,10.10
2018-09-04T03:35:29.563Z,9.90
2018-09-04T03:36:29.625Z,10.20
2018-09-04T03:37:29.690Z,9.10
2018-09-04T03:38:29.749Z,9.40
2018-09-04T03:39:29.968Z,9.10
2018-09-04T03:40:29.875Z,9.00
2018-09-04T03:41:29.936Z,9.40
2018-09-04T03:42:30.002Z,10.60
2018-09-04T03:43:30.062Z,10.20
2018-09-04T03:44:30.181Z,10.50
2018-09-04T03:45:30.183Z,9.50
2018-09-04T03:46:30.246Z,10.20
2018-09-04T03:47:30.308Z,9.50
2018-09-04T03:48:30.370Z,9.90
2018-09-04T03:49:30.432Z,10.40
2018-09-04T03:50:30.493Z,10.50
2018-09-04T03:51:30.556Z,9.70
2018-09-04T03:52:30.618Z,9.70
2018-09-04T03:53:30.705Z,9.90
2018-09-04T03:54:30.744Z,9.70
2018-09-04T03:55:30.805Z,9.70
2018-09-04T03:56:30.866Z,9.50
2018-09-04T03:57:30.928Z,10.50
2018-09-04T03:58:30.991Z,10.40
2018-09-04T03:59:31.052Z,9.50
2018-09-04T04:00:31.116Z,9.80
2018-09-04T04:01:31.264Z,9.70
2018-09-04T04:02:31.240Z,10.00
2018-09-04T04:03:31.301Z,9.90
2018-09-04T04:04:31.362Z,9.70
2018-09-04T04:05:31.424Z,10.30
2018-09-04T04:06:31.491Z,10.30
2018-09-04T04:07:31.549Z,9.90
2018-09-04T04:08:31.611Z,9.60
2018-09-04T04:09:31.673Z,10.60
2018-09-04T04:10:31.734Z,9.60
2018-09-04T04:11:31.797Z,9.10
2018-09-04T04:12:31.859Z,9.40
2018-09-04T04:13:31.921Z,9.50
2018-09-04T04:14:31.982Z,9.10
2018-09-04T04:15:32.046Z,9.80
2018-09-04T04:16:32.107Z,9.50
2018-09-04T04:17:32.168Z,10.20
2018-09-04T04:18:32.231Z,9.70
2018-09-04T04:19:32.293Z,9.10
2018-09-04T04:20:32.356Z,10.70
2018-09-04T04:21:32.419Z,10.60
2018-09-04T04:22:32.479Z,9.30
2018-09-04T04:23:32.557Z,9.50
2018-09-04T04:24:32.614Z,8.80
2018-09-04T04:25:32.667Z,9.90
2018-09-04T04:26:32.737Z,8.50
2018-09-04T04:27:32.791Z,10.00
2018-09-04T04:28:32.853Z,9.20
2018-09-04T04:29:32.915Z,9.50
2018-09-04T04:30:33.865Z,10.20
2018-09-04T04:31:33.038Z,10.20
2018-09-04T04:32:33.101Z,9.70
2018-09-04T04:33:33.162Z,10.40
2018-09-04T04:34:33.224Z,9.10
2018-09-04T04:35:33.286Z,9.30
2018-09-04T04:36:33.348Z,9.80
2018-09-04T04:37:33.412Z,10.10
2018-09-04T04:38:33.473Z,10.50
2018-09-04T04:39:33.538Z,10.40
2018-09-04T04:40:33.597Z,9.70
2018-09-04T04:41:33.658Z,10.10
2018-09-04T04:42:33.720Z,9.50
2018-09-04T04:43:33.783Z,9.10
2018-09-04T04:44:33.845Z,10.60
2018-09-04T04:45:33.906Z,9.80
2018-09-04T04:46:33.967Z,10.10
2018-09-04T04:47:34.031Z,10.40
2018-09-04T04:48:34.093Z,9.70
2018-09-04T04:49:34.154Z,9.60
2018-09-04T04:50:34.215Z,10.80
2018-09-04T04:51:34.278Z,10.60
2018-09-04T04:52:34.341Z,10.40
2018-09-04T04:53:34.717Z,9.90
2018-09-04T04:54:34.464Z,10.30
2018-09-04T04:55:34.527Z,10.20
2018-09-04T04:56:34.589Z,10.60
2018-09-04T04:57:34.669Z,9.60
2018-09-04T04:58:34.718Z,9.70
2018-09-04T04:59:34.778Z,10.60
2018-09-04T05:00:34.837Z,9.50
2018-09-04T05:01:34.899Z,9.90
2018-09-04T05:02:35.523Z,9.50
2018-09-04T05:03:35.023Z,9.60
2018-09-04T05:04:35.086Z,9.60
2018-09-04T05:05:35.149Z,9.80
2018-09-04T05:06:35.210Z,10.70
2018-09-04T05:07:35.669Z,9.60
2018-09-04T05:08:35.335Z,9.70
2018-09-04T05:09:35.397Z,9.20
2018-09-04T05:10:35.458Z,8.90
2018-09-04T05:11:35.590Z,8.70
2018-09-04T05:12:35.584Z,8.80
2018-09-04T05:13:35.649Z,9.80
2018-09-04T05:14:35.710Z,9.40
2018-09-04T05:15:35.771Z,8.70
2018-09-04T05:16:35.834Z,8.80
2018-09-04T05:17:35.894Z,8.70
2018-09-04T05:18:35.961Z,9.30
2018-09-04T05:19:36.020Z,9.00
2018-09-04T05:20:36.082Z,9.20
2018-09-04T05:21:36.144Z,9.30
2018-09-04T05:22:36.211Z,9.10
2018-09-04T05:23:36.267Z,10.30
2018-09-04T05:24:36.332Z,9.60
2018-09-04T05:25:36.394Z,10.20
2018-09-04T05:26:36.457Z,9.20
2018-09-04T05:27:36.520Z,9.00
2018-09-04T05:28:36.580Z,9.40
2018-09-04T05:29:36.642Z,10.20
2018-09-04T05:30:36.793Z,8.90
2018-09-04T05:31:36.769Z,9.80
2018-09-04T05:32:36.834Z,9.50
2018-09-04T05:33:36.891Z,9.70
2018-09-04T05:34:36.954Z,9.20
2018-09-04T05:35:37.016Z,8.80
2018-09-04T05:36:37.091Z,9.50
2018-09-04T05:37:37.141Z,9.30
2018-09-04T05:38:37.206Z,9.30
2018-09-04T05:39:37.265Z,9.60
2018-09-04T05:40:37.638Z,9.50
2018-09-04T05:41:37.390Z,10.70
2018-09-04T05:42:37.923Z,9.70
2018-09-04T05:43:37.518Z,9.30
2018-09-04T05:44:37.577Z,9.30
2018-09-04T05:45:37.639Z,9.10
2018-09-04T05:46:37.702Z,9.20
2018-09-04T05:47:37.765Z,9.40
2018-09-04T05:48:37.830Z,9.00
2018-09-04T05:49:37.889Z,9.60
2018-09-04T05:50:37.952Z,9.30
2018-09-04T05:51:38.016Z,9.40
2018-09-04T05:52:38.078Z,10.30
2018-09-04T05:53:38.139Z,9.70
2018-09-04T05:54:38.202Z,10.30
2018-09-04T05:55:38.265Z,9.30
2018-09-04T05:56:38.363Z,9.00
2018-09-04T05:57:38.418Z,10.00
2018-09-04T05:58:38.452Z,9.90
2018-09-04T05:59:39.206Z,9.70
2018-09-04T06:00:38.581Z,9.70
2018-09-04T06:01:38.639Z,8.40
2018-09-04T06:02:38.700Z,9.30
2018-09-04T06:03:38.766Z,9.50
2018-09-04T06:04:38.828Z,10.00
2018-09-04T06:05:38.889Z,10.00
2018-09-04T06:06:38.954Z,10.30
2018-09-04T06:07:39.016Z,9.40
2018-09-04T06:08:39.078Z,9.60
2018-09-04T06:09:39.139Z,10.00
2018-09-04T06:10:39.206Z,9.30
2018-09-04T06:11:39.267Z,9.90
2018-09-04T06:12:39.329Z,9.70
2018-09-04T06:13:39.428Z,10.70
2018-09-04T06:14:39.454Z,9.90
2018-09-04T06:15:39.517Z,10.10
2018-09-04T06:16:39.580Z,9.90
2018-09-04T06:17:39.643Z,9.70
2018-09-04T06:18:39.705Z,9.20
2018-09-04T06:19:39.768Z,9.50
2018-09-04T06:20:39.833Z,9.60
2018-09-04T06:21:39.893Z,9.60
2018-09-04T06:22:39.957Z,9.30
2018-09-04T06:23:40.021Z,9.80
2018-09-04T06:24:40.084Z,10.20
2018-09-04T06:25:40.147Z,9.80
2018-09-04T06:26:40.210Z,9.60
2018-09-04T06:27:40.272Z,9.60
2018-09-04T06:28:40.337Z,10.10
2018-09-04T06:29:40.471Z,10.00
2018-09-04T06:30:40.462Z,10.50
2018-09-04T06:31:40.527Z,10.70
2018-09-04T06:32:40.589Z,10.60
2018-09-04T06:33:40.653Z,10.80
2018-09-04T06:34:40.716Z,10.50
2018-09-04T06:35:40.780Z,10.50
2018-09-04T06:36:40.899Z,10.40
2018-09-04T06:37:40.924Z,11.20
2018-09-04T06:38:40.966Z,11.30
2018-09-04T06:39:41.031Z,11.40
2018-09-04T06:40:41.094Z,11.30
2018-09-04T06:41:41.307Z,11.50
2018-09-04T06:42:41.226Z,10.70
2018-09-04T06:43:41.654Z,10.90
2018-09-04T06:44:41.362Z,10.70
2018-09-04T06:45:41.410Z,11.00
2018-09-04T06:46:41.497Z,11.50
2018-09-04T06:47:41.537Z,10.90
2018-09-04T06:48:41.601Z,11.00
2018-09-04T06:49:41.686Z,11.20
2018-09-04T06:50:41.726Z,11.30
2018-09-04T06:51:41.794Z,11.20
2018-09-04T06:52:41.859Z,10.30
2018-09-04T06:53:41.928Z,10.90
2018-09-04T06:54:42.038Z,11.00
2018-09-04T06:55:42.080Z,10.50
2018-09-04T06:56:42.108Z,10.50
2018-09-04T06:57:42.207Z,10.50
2018-09-04T06:58:42.233Z,10.80
2018-09-04T06:59:42.298Z,9.90
2018-09-04T07:00:42.368Z,10.30
2018-09-04T07:01:42.676Z,10.60
2018-09-04T07:02:42.489Z,11.00
2018-09-04T07:03:42.552Z,11.10
2018-09-04T07:04:42.617Z,11.30
2018-09-04T07:05:42.680Z,10.80
2018-09-04T07:06:42.746Z,11.80
2018-09-04T07:07:42.809Z,11.60
2018-09-04T07:08:42.873Z,11.10
2018-09-04T07:09:42.935Z,10.60
2018-09-04T07:10:42.999Z,10.90
2018-09-04T07:11:43.063Z,10.10
2018-09-04T07:12:43.127Z,11.50
2018-09-04T07:13:43.190Z,10.90
2018-09-04T07:14:43.256Z,11.70
2018-09-04T07:15:43.319Z,11.60
2018-09-04T07:16:43.384Z,11.70
2018-09-04T07:17:43.446Z,11.00
2018-09-04T07:18:43.511Z,11.50
2018-09-04T07:19:43.576Z,11.20
2018-09-04T07:20:44.089Z,11.50
2018-09-04T07:21:43.707Z,11.50
2018-09-04T07:22:43.767Z,10.80
2018-09-04T07:23:43.871Z,12.00
2018-09-04T07:24:43.895Z,11.90
2018-09-04T07:25:43.957Z,11.40
2018-09-04T07:26:44.031Z,12.00
2018-09-04T07:27:44.088Z,11.30
2018-09-04T07:28:44.151Z,11.90
2018-09-04T07:29:44.215Z,11.50
2018-09-04T07:30:44.279Z,11.60
2018-09-04T07:31:44.345Z,12.10
2018-09-04T07:32:44.408Z,11.40
2018-09-04T07:33:44.471Z,11.90
2018-09-04T07:34:44.537Z,12.70
2018-09-04T07:35:44.601Z,11.50
2018-09-04T07:36:44.665Z,11.70
2018-09-04T07:37:44.729Z,12.70
2018-09-04T07:38:44.794Z,12.00
2018-09-04T07:39:44.862Z,12.80
2018-09-04T07:40:44.923Z,12.90
2018-09-04T07:41:45.038Z,13.00
2018-09-04T07:42:45.056Z,12.50
2018-09-04T07:43:45.117Z,13.50
2018-09-04T07:44:45.233Z,13.90
2018-09-04T07:45:45.245Z,14.60
2018-09-04T07:46:45.322Z,13.40
2018-09-04T07:47:45.437Z,14.10
2018-09-04T07:48:45.497Z,13.50
2018-09-04T07:49:45.544Z,14.60
2018-09-04T07:50:45.622Z,13.60
2018-09-04T07:51:45.737Z,13.40
2018-09-04T07:52:45.705Z,13.30
2018-09-04T07:53:45.909Z,14.20
2018-09-04T07:54:45.884Z,13.70
2018-09-04T07:55:45.942Z,13.50
2018-09-04T07:56:45.988Z,13.60
2018-09-04T07:57:46.069Z,13.20
2018-09-04T07:58:46.448Z,13.90
2018-09-04T07:59:46.156Z,13.60
2018-09-04T08:00:46.580Z,12.90
2018-09-04T08:01:46.363Z,13.70
2018-09-04T08:02:46.791Z,13.50
2018-09-04T08:03:46.568Z,13.60
2018-09-04T08:04:46.862Z,13.50
2018-09-04T08:05:46.554Z,12.80
2018-09-04T08:06:46.613Z,12.10
2018-09-04T08:07:46.679Z,12.80
2018-09-04T08:08:46.745Z,13.30
2018-09-04T08:09:46.809Z,13.30
2018-09-04T08:10:46.877Z,12.50
2018-09-04T08:11:46.940Z,12.60
2018-09-04T08:12:47.006Z,11.90
2018-09-04T08:13:47.070Z,12.10
2018-09-04T08:14:47.135Z,12.90
2018-09-04T08:15:47.202Z,13.00
2018-09-04T08:16:47.273Z,13.80
2018-09-04T08:17:47.395Z,12.70
2018-09-04T08:18:47.398Z,12.40
2018-09-04T08:19:47.503Z,14.10
2018-09-04T08:20:47.948Z,12.70
2018-09-04T08:21:47.597Z,12.70
2018-09-04T08:22:48.159Z,11.70
2018-09-04T08:23:47.725Z,12.20
2018-09-04T08:24:47.790Z,11.90
2018-09-04T08:25:47.854Z,11.20
2018-09-04T08:26:47.920Z,11.30
2018-09-04T08:27:47.986Z,11.70
2018-09-04T08:28:48.052Z,12.00
2018-09-04T08:29:48.118Z,10.90
2018-09-04T08:30:48.182Z,10.90
2018-09-04T08:31:48.248Z,11.40
2018-09-04T08:32:48.377Z,10.70
2018-09-04T08:33:48.378Z,11.10
2018-09-04T08:34:48.444Z,10.80
2018-09-04T08:35:48.511Z,11.30
2018-09-04T08:36:48.575Z,10.90
2018-09-04T08:37:48.640Z,10.40
2018-09-04T08:38:48.706Z,10.20
2018-09-04T08:39:48.811Z,10.80
2018-09-04T08:40:48.837Z,10.90
2018-09-04T08:41:48.919Z,10.10
2018-09-04T08:42:48.968Z,10.10
2018-09-04T08:43:49.035Z,10.50
2018-09-04T08:44:49.100Z,10.40
2018-09-04T08:45:49.165Z,10.40
2018-09-04T08:46:49.246Z,10.20
2018-09-04T08:47:49.389Z,10.00
2018-09-04T08:48:49.361Z,10.50
2018-09-04T08:49:49.426Z,10.00
2018-09-04T08:50:49.494Z,9.70
2018-09-04T08:51:49.558Z,8.80
2018-09-04T08:52:49.879Z,9.20
2018-09-04T08:53:49.689Z,9.30
2018-09-04T08:54:49.756Z,9.20
2018-09-04T08:55:49.821Z,8.70
2018-09-04T08:56:49.927Z,8.10
2018-09-04T08:57:49.952Z,9.10
2018-09-04T08:58:50.017Z,8.20
2018-09-04T08:59:50.085Z,8.50
2018-09-04T09:00:50.151Z,8.70
2018-09-04T09:01:50.215Z,8.40
2018-09-04T09:02:50.283Z,8.60
2018-09-04T09:03:50.361Z,9.00
2018-09-04T09:04:50.413Z,8.70
2018-09-04T09:05:50.479Z,9.00
2018-09-04T09:06:50.547Z,9.40
2018-09-04T09:07:50.612Z,10.40
2018-09-04T09:08:50.678Z,9.80
2018-09-04T09:09:50.757Z,10.10
2018-09-04T09:10:50.808Z,10.50
2018-09-04T09:11:50.891Z,8.70
2018-09-04T09:12:50.945Z,7.90
2018-09-04T09:13:51.006Z,7.90
2018-09-04T09:14:51.118Z,8.60
2018-09-04T09:15:51.138Z,8.90
2018-09-04T09:16:51.280Z,7.20
2018-09-04T09:17:51.274Z,7.50
2018-09-04T09:18:51.338Z,7.10
2018-09-04T09:19:51.402Z,7.10
2018-09-04T09:20:51.473Z,7.00
2018-09-04T09:21:51.534Z,6.70
2018-09-04T09:22:51.620Z,6.60
2018-09-04T09:23:51.666Z,6.10
2018-09-04T09:24:51.743Z,6.80
2018-09-04T09:25:51.798Z,6.70
2018-09-04T09:26:51.867Z,6.50
2018-09-04T09:27:51.930Z,6.50
2018-09-04T09:28:51.996Z,6.60
2018-09-04T09:29:52.064Z,6.10
2018-09-04T09:30:52.128Z,5.90
2018-09-04T09:31:52.195Z,6.00
2018-09-04T09:32:52.261Z,6.00
2018-09-04T09:33:52.326Z,6.10
2018-09-04T09:34:52.393Z,6.00
2018-09-04T09:35:52.459Z,5.80
2018-09-04T09:36:52.648Z,6.00
2018-09-04T09:37:52.592Z,6.20
2018-09-04T09:38:52.656Z,5.60
2018-09-04T09:39:52.722Z,5.70
2018-09-04T09:40:52.796Z,5.70
2018-09-04T09:41:52.854Z,5.50
2018-09-04T09:42:52.921Z,6.00
2018-09-04T09:43:52.987Z,6.10
2018-09-04T09:44:53.054Z,6.60
2018-09-04T09:45:53.119Z,6.20
2018-09-04T09:46:53.187Z,6.10
2018-09-04T09:47:53.402Z,5.90
2018-09-04T09:48:53.319Z,5.70
2018-09-04T09:49:53.397Z,5.70
2018-09-04T09:50:53.451Z,5.60
2018-09-04T09:51:53.518Z,5.70
2018-09-04T09:52:53.640Z,5.50
2018-09-04T09:53:53.663Z,4.90
2018-09-04T09:54:53.717Z,4.80
2018-09-04T09:55:53.839Z,4.00
2018-09-04T09:56:53.851Z,4.60
2018-09-04T09:57:53.928Z,4.60
2018-09-04T09:58:53.988Z,4.80
2018-09-04T09:59:54.097Z,4.50
2018-09-04T10:00:54.210Z,4.80
2018-09-04T10:01:54.184Z,4.90
2018-09-04T10:02:54.252Z,5.00
2018-09-04T10:03:54.371Z,4.70
2018-09-04T10:04:54.388Z,4.60
2018-09-04T10:05:54.491Z,4.50
2018-09-04T10:06:54.523Z,4.80
2018-09-04T10:07:54.807Z,4.50
2018-09-04T10:08:54.658Z,4.80
2018-09-04T10:09:54.803Z,4.90
2018-09-04T10:10:54.803Z,4.50
2018-09-04T10:11:54.861Z,4.60
2018-09-04T10:12:54.929Z,4.60
2018-09-04T10:13:54.996Z,4.40
2018-09-04T10:14:55.070Z,4.70
2018-09-04T10:15:55.133Z,4.50
2018-09-04T10:16:55.200Z,4.60
2018-09-04T10:17:55.372Z,4.60
2018-09-04T10:18:55.335Z,5.00
2018-09-04T10:19:55.450Z,4.20
2018-09-04T10:20:55.471Z,4.30
2018-09-04T10:21:55.540Z,4.10
2018-09-04T10:22:55.604Z,4.10
2018-09-04T10:23:55.673Z,4.70
2018-09-04T10:24:55.743Z,4.40
2018-09-04T10:25:55.808Z,4.90
2018-09-04T10:26:55.877Z,4.60
2018-09-04T10:27:55.941Z,4.90
2018-09-04T10:28:56.009Z,4.50
2018-09-04T10:29:56.076Z,4.60
2018-09-04T10:30:56.145Z,4.70
2018-09-04T10:31:56.218Z,4.90
2018-09-04T10:32:56.279Z,4.60
2018-09-04T10:33:56.345Z,4.30
2018-09-04T10:34:56.413Z,4.60
2018-09-04T10:35:56.481Z,4.20
2018-09-04T10:36:56.550Z,4.50
2018-09-04T10:37:56.615Z,4.20
2018-09-04T10:38:56.684Z,4.10
2018-09-04T10:39:56.751Z,4.50
2018-09-04T10:40:56.820Z,4.00
2018-09-04T10:41:56.890Z,4.00
2018-09-04T10:42:56.955Z,4.30
2018-09-04T10:43:57.026Z,4.10
2018-09-04T10:44:57.097Z,3.70
2018-09-04T10:45:57.161Z,4.10
2018-09-04T10:46:57.235Z,3.50
2018-09-04T10:47:57.298Z,3.40
2018-09-04T10:48:57.368Z,4.20
2018-09-04T10:49:57.453Z,3.90
2018-09-04T10:50:57.508Z,4.20
2018-09-04T10:51:57.577Z,3.80
2018-09-04T10:52:57.647Z,4.10
2018-09-04T10:53:57.717Z,4.00
2018-09-04T10:54:57.789Z,4.10
2018-09-04T10:55:57.860Z,3.80
2018-09-04T10:56:57.929Z,3.70
2018-09-04T10:57:57.999Z,4.80
2018-09-04T10:58:58.070Z,4.00
2018-09-04T10:59:58.141Z,3.90
2018-09-04T11:00:58.228Z,4.00
2018-09-04T11:01:58.294Z,3.30
2018-09-04T11:02:58.354Z,3.30
2018-09-04T11:03:58.424Z,3.20
2018-09-04T11:04:58.497Z,3.30
2018-09-04T11:05:58.568Z,3.50
2018-09-04T11:06:58.640Z,3.00
2018-09-04T11:07:58.712Z,3.40
2018-09-04T11:08:58.798Z,3.20
2018-09-04T11:09:58.966Z,3.00
2018-09-04T11:10:58.928Z,3.20
2018-09-04T11:11:59.000Z,3.00
2018-09-04T11:12:59.073Z,3.20
2018-09-04T11:13:59.145Z,3.10
2018-09-04T11:14:59.219Z,3.10
2018-09-04T11:15:59.930Z,3.20
2018-09-04T11:16:59.367Z,3.30
2018-09-04T11:17:59.440Z,3.40
2018-09-04T11:18:59.511Z,3.40
2018-09-04T11:19:59.586Z,3.30
2018-09-04T11:20:59.657Z,3.40
2018-09-04T11:21:59.736Z,2.90
2018-09-04T11:23:00.110Z,3.10
2018-09-04T11:23:59.875Z,3.40
2018-09-04T11:24:59.948Z,3.40
2018-09-04T11:26:00.033Z,3.40
2018-09-04T11:27:00.093Z,3.40
2018-09-04T11:28:00.170Z,3.30
2018-09-04T11:29:00.238Z,3.60
2018-09-04T11:30:00.309Z,3.50
2018-09-04T11:31:00.382Z,3.50
2018-09-04T11:32:00.454Z,3.20
2018-09-04T11:33:00.528Z,3.40
2018-09-04T11:34:00.597Z,3.60
2018-09-04T11:35:00.671Z,3.50
2018-09-04T11:36:00.790Z,3.50
2018-09-04T11:37:00.815Z,3.90
2018-09-04T11:38:00.885Z,3.60
2018-09-04T11:39:00.959Z,3.80
2018-09-04T11:40:01.030Z,4.10
2018-09-04T11:41:01.099Z,4.10
2018-09-04T11:42:01.170Z,3.80
2018-09-04T11:43:01.242Z,3.70
2018-09-04T11:44:01.314Z,4.00
2018-09-04T11:45:01.386Z,3.60
2018-09-04T11:46:01.458Z,3.50
2018-09-04T11:47:01.612Z,3.80
2018-09-04T11:48:01.600Z,3.50
2018-09-04T11:49:01.669Z,3.70
2018-09-04T11:50:01.738Z,3.70
2018-09-04T11:51:01.811Z,3.60
2018-09-04T11:52:01.881Z,3.90
2018-09-04T11:53:01.955Z,3.70
2018-09-04T11:54:02.024Z,3.70
2018-09-04T11:55:02.094Z,3.80
2018-09-04T11:56:02.165Z,3.50
2018-09-04T11:57:02.236Z,4.00
2018-09-04T11:58:02.308Z,3.90
2018-09-04T11:59:02.380Z,4.00
2018-09-04T12:00:02.453Z,3.70
2018-09-04T12:01:02.525Z,3.90
2018-09-04T12:02:02.600Z,3.60
2018-09-04T12:03:02.668Z,3.40
2018-09-04T12:04:02.741Z,3.90
2018-09-04T12:05:02.815Z,3.70
2018-09-04T12:06:02.886Z,3.90
2018-09-04T12:07:02.959Z,3.80
2018-09-04T12:08:03.033Z,3.50
2018-09-04T12:09:03.105Z,3.90
2018-09-04T12:10:03.177Z,3.80
2018-09-04T12:11:03.250Z,3.60
2018-09-04T12:12:03.328Z,4.00
2018-09-04T12:13:03.425Z,3.80
2018-09-04T12:14:03.468Z,4.10
2018-09-04T12:15:03.539Z,3.80
2018-09-04T12:16:03.610Z,3.70
2018-09-04T12:17:03.685Z,4.10
2018-09-04T12:18:03.754Z,3.70
2018-09-04T12:19:03.839Z,3.90
2018-09-04T12:20:03.896Z,4.00
2018-09-04T12:21:04.137Z,4.00
2018-09-04T12:22:04.038Z,3.80
2018-09-04T12:23:04.113Z,4.10
2018-09-04T12:24:04.181Z,4.00
2018-09-04T12:25:04.251Z,4.20
2018-09-04T12:26:04.333Z,3.80
2018-09-04T12:27:04.409Z,4.00
2018-09-04T12:28:04.463Z,4.30
2018-09-04T12:29:04.534Z,3.90
2018-09-04T12:30:04.604Z,4.30
2018-09-04T12:31:04.676Z,3.90
2018-09-04T12:32:04.748Z,4.20
2018-09-04T12:33:04.822Z,4.20
2018-09-04T12:34:05.002Z,3.80
2018-09-04T12:35:04.962Z,3.90
2018-09-04T12:36:05.034Z,3.80
2018-09-04T12:37:05.741Z,4.10
2018-09-04T12:38:05.487Z,4.20
2018-09-04T12:39:05.672Z,4.20
2018-09-04T12:40:05.358Z,4.40
2018-09-04T12:41:05.398Z,4.30
2018-09-04T12:42:05.469Z,4.00
2018-09-04T12:43:05.545Z,3.90
2018-09-04T12:44:05.612Z,3.90
2018-09-04T12:45:06.313Z,4.20
2018-09-04T12:46:06.338Z,4.10
2018-09-04T12:47:06.419Z,4.20
2018-09-04T12:48:06.481Z,3.80
2018-09-04T12:49:06.485Z,4.20
2018-09-04T12:50:06.667Z,4.20
2018-09-04T12:51:06.687Z,4.30
2018-09-04T12:52:06.208Z,4.10
2018-09-04T12:53:06.269Z,4.40
2018-09-04T12:54:06.344Z,4.10
2018-09-04T12:55:06.417Z,4.10
2018-09-04T12:56:06.494Z,4.30
2018-09-04T12:57:06.567Z,4.10
2018-09-04T12:58:06.637Z,4.40
2018-09-04T12:59:06.714Z,4.00
2018-09-04T13:00:06.785Z,4.40
2018-09-04T13:01:06.858Z,4.20
2018-09-04T13:02:06.932Z,4.70
2018-09-04T13:03:07.005Z,4.40
2018-09-04T13:04:07.080Z,4.10
2018-09-04T13:05:07.153Z,3.90
2018-09-04T13:06:07.374Z,4.30
2018-09-04T13:07:07.305Z,4.10
2018-09-04T13:08:07.375Z,4.00
2018-09-04T13:09:07.498Z,4.10
2018-09-04T13:10:08.557Z,4.50
2018-09-04T13:11:08.210Z,4.30
2018-09-04T13:12:08.315Z,4.40
2018-09-04T13:13:07.746Z,4.30
2018-09-04T13:14:07.818Z,4.30
2018-09-04T13:15:08.142Z,4.40
2018-09-04T13:16:07.977Z,4.00